Time;durP1;ratioP1;P1;durP2;ratioP2;P2;SDS_P1;SDS_P2;PMS_P1;PMS_P2;Temp;Humidity;BMP_temperature;BMP_pressure;BME280_temperature;BME280_humidity;BME280_pressure;Samples;Min_cycle;Max_cycle;Signal;HPM_P1;HPM_P2
2023/12/12 00:01:53;;;;;;;10.52;5.07;;;;;;;6.09;100.00;100492.09;4962786;28;20053;-70
2023/12/12 00:04:19;;;;;;;12.10;4.88;;;;;;;6.04;100.00;100508.00;4960174;28;20046;-70
2023/12/12 00:06:45;;;;;;;9.13;4.57;;;;;;;6.04;100.00;100497.34;4961941;28;20039;-70
2023/12/12 00:09:10;;;;;;;10.15;4.38;;;;;;;6.02;100.00;100496.78;4962868;28;20475;-70
2023/12/12 00:11:36;;;;;;;8.75;4.38;;;;;;;6.02;100.00;100502.09;4958283;28;20039;-70
2023/12/12 00:14:01;;;;;;;10.93;5.05;;;;;;;5.97;100.00;100499.38;4949060;28;20034;-70
2023/12/12 00:16:27;;;;;;;8.57;4.45;;;;;;;5.95;100.00;100510.25;4957582;28;20118;-71
2023/12/12 00:18:53;;;;;;;14.95;6.03;;;;;;;5.94;100.00;100507.84;4961557;28;20031;-70
2023/12/12 00:21:18;;;;;;;12.45;5.57;;;;;;;5.92;100.00;100502.75;4961762;28;20504;-71
2023/12/12 00:23:44;;;;;;;13.07;6.22;;;;;;;5.85;100.00;100503.97;4953491;28;20505;-71
2023/12/12 00:26:12;;;;;;;11.57;6.00;;;;;;;5.83;100.00;100519.34;4966976;28;20069;-73
2023/12/12 00:28:38;;;;;;;12.02;5.15;;;;;;;5.80;100.00;100517.97;4946478;28;20034;-71
2023/12/12 00:31:04;;;;;;;;;;;;;;;5.75;100.00;100518.69;4949757;28;20039;-69
2023/12/12 00:33:30;;;;;;;11.23;4.93;;;;;;;5.73;100.00;100520.00;4964872;28;19920;-71
2023/12/12 00:35:55;;;;;;;13.07;5.40;;;;;;;5.69;100.00;100525.00;4964593;28;20046;-71
2023/12/12 00:38:28;;;;;;;13.50;5.60;;;;;;;5.66;100.00;100530.78;4954781;28;20108;-72
2023/12/12 00:40:53;;;;;;;;;;;;;;;5.63;100.00;100536.59;4942064;28;20548;-73
2023/12/12 00:43:20;;;;;;;12.70;5.55;;;;;;;5.60;100.00;100539.72;4956759;28;19918;-72
2023/12/12 00:45:46;;;;;;;13.25;5.88;;;;;;;5.56;100.00;100551.88;4963639;28;20030;-71
2023/12/12 00:48:12;;;;;;;13.60;5.88;;;;;;;5.55;100.00;100554.75;4964144;28;20134;-71
2023/12/12 00:50:37;;;;;;;16.88;6.60;;;;;;;5.53;100.00;100549.69;4972539;28;20039;-71
2023/12/12 00:53:03;;;;;;;14.90;6.32;;;;;;;5.51;100.00;100549.13;4952716;28;22050;-72
2023/12/12 00:55:29;;;;;;;17.15;7.85;;;;;;;5.47;100.00;100553.31;4963082;28;20159;-72
2023/12/12 00:57:54;;;;;;;17.17;7.55;;;;;;;5.46;100.00;100557.81;4965635;28;20578;-72
2023/12/12 01:00:20;;;;;;;20.02;8.35;;;;;;;5.42;100.00;100550.59;4969128;28;20076;-71
2023/12/12 01:02:46;;;;;;;15.55;6.35;;;;;;;5.39;100.00;100565.13;4943243;28;20064;-72
2023/12/12 01:05:11;;;;;;;18.80;8.52;;;;;;;5.39;100.00;100561.66;4963095;28;20049;-72
2023/12/12 01:07:37;;;;;;;19.13;7.05;;;;;;;5.39;100.00;100562.47;4962289;28;20046;-71
2023/12/12 01:10:04;;;;;;;18.80;8.90;;;;;;;5.39;100.00;100572.28;4966167;28;20101;-71
2023/12/12 01:12:30;;;;;;;16.20;6.88;;;;;;;5.39;100.00;100574.94;4963192;28;20049;-70
2023/12/12 01:14:58;;;;;;;22.63;8.32;;;;;;;5.37;100.00;100574.41;4964697;28;20035;-70
2023/12/12 01:17:25;;;;;;;20.73;7.43;;;;;;;5.37;100.00;100577.06;4965035;28;20450;-70
2023/12/12 01:19:51;;;;;;;17.83;8.32;;;;;;;5.35;100.00;100581.78;4959319;28;20034;-72
2023/12/12 01:22:17;;;;;;;17.98;7.75;;;;;;;5.33;100.00;100584.66;4970116;28;20069;-70
2023/12/12 01:24:43;;;;;;;18.10;8.10;;;;;;;5.33;100.00;100586.53;4953187;28;20035;-73
2023/12/12 01:27:09;;;;;;;23.58;10.05;;;;;;;5.30;100.00;100587.81;4956628;23;20246;-78
2023/12/12 01:29:35;;;;;;;18.00;8.70;;;;;;;5.29;100.00;100583.56;4983880;28;20133;-78
2023/12/12 01:32:02;;;;;;;17.95;7.78;;;;;;;5.30;100.00;100589.66;4978371;28;20042;-80
2023/12/12 01:34:28;;;;;;;16.88;7.53;;;;;;;5.27;100.00;100596.25;4976884;28;20045;-78
2023/12/12 01:36:54;;;;;;;16.60;7.57;;;;;;;5.25;100.00;100592.22;4975364;28;20050;-79
2023/12/12 01:39:20;;;;;;;15.02;6.55;;;;;;;5.24;100.00;100595.94;4967746;28;20395;-79
2023/12/12 01:41:48;;;;;;;14.05;6.40;;;;;;;5.25;100.00;100597.53;4980179;28;20038;-79
2023/12/12 01:44:14;;;;;;;14.77;6.03;;;;;;;5.23;100.00;100599.63;4977097;28;20821;-79
2023/12/12 01:46:47;;;;;;;16.10;6.57;;;;;;;5.20;100.00;100593.72;4965830;28;20037;-79
2023/12/12 01:49:16;;;;;;;16.02;6.32;;;;;;;5.19;100.00;100601.94;4979885;28;20137;-81
2023/12/12 01:51:44;;;;;;;12.50;5.88;;;;;;;5.18;100.00;100597.69;4986436;28;20030;-80
2023/12/12 01:54:10;;;;;;;13.88;6.90;;;;;;;5.17;100.00;100602.19;4969900;28;20046;-78
2023/12/12 01:56:38;;;;;;;13.82;5.63;;;;;;;5.15;100.00;100593.66;4980496;28;20525;-79
2023/12/12 01:59:04;;;;;;;14.15;7.20;;;;;;;5.12;100.00;100604.72;4984653;28;20026;-79
2023/12/12 02:01:30;;;;;;;;;;;;;;;5.11;100.00;100599.66;4970177;28;20560;-79
2023/12/12 02:03:57;;;;;;;17.85;6.13;;;;;;;5.10;100.00;100601.53;4983724;28;19965;-79
2023/12/12 02:06:24;;;;;;;21.13;6.63;;;;;;;5.09;100.00;100599.09;4984029;28;20456;-79
2023/12/12 02:08:51;;;;;;;25.63;7.35;;;;;;;5.07;100.00;100595.88;4987585;28;20503;-80
2023/12/12 02:11:17;;;;;;;22.30;6.80;;;;;;;5.05;100.00;100593.44;4980106;28;20423;-79
2023/12/12 02:13:43;;;;;;;22.17;6.22;;;;;;;5.05;100.00;100593.44;4983456;28;20030;-77
2023/12/12 02:16:09;;;;;;;28.80;7.85;;;;;;;5.04;100.00;100586.53;4990244;28;20073;-78
2023/12/12 02:18:35;;;;;;;20.83;7.55;;;;;;;5.02;100.00;100599.25;4986518;28;20491;-81
2023/12/12 02:21:02;;;;;;;27.30;8.15;;;;;;;5.01;100.00;100597.59;4981477;28;20478;-79
2023/12/12 02:23:28;;;;;;;31.05;9.18;;;;;;;5.01;100.00;100597.59;4966288;28;20076;-79
2023/12/12 02:25:55;;;;;;;27.98;8.02;;;;;;;5.00;100.00;100596.00;4965934;28;20130;-81
2023/12/12 02:28:21;;;;;;;29.27;8.10;;;;;;;5.01;100.00;100596.81;4980724;28;20085;-75
2023/12/12 02:30:46;;;;;;;30.65;8.65;;;;;;;5.01;100.00;100597.59;4981346;28;20031;-80
2023/12/12 02:33:13;;;;;;;26.02;7.63;;;;;;;5.02;100.00;100601.09;4972572;28;20377;-79
2023/12/12 02:35:39;;;;;;;31.45;9.13;;;;;;;5.01;100.00;100592.28;4981974;28;20030;-80
2023/12/12 02:38:05;;;;;;;30.88;8.82;;;;;;;4.99;100.00;100591.75;4980049;28;20045;-75
2023/12/12 02:40:30;;;;;;;43.35;10.65;;;;;;;4.98;100.00;100591.97;4988306;28;20038;-78
2023/12/12 02:42:56;;;;;;;34.05;9.52;;;;;;;4.99;100.00;100597.03;4968619;28;20122;-80
2023/12/12 02:45:21;;;;;;;29.27;7.95;;;;;;;5.00;100.00;100595.19;4982889;28;20193;-78
2023/12/12 02:47:47;;;;;;;33.15;9.90;;;;;;;4.99;100.00;100596.25;4984279;28;20034;-79
2023/12/12 02:50:12;;;;;;;50.55;10.50;;;;;;;4.98;100.00;100603.41;4987398;28;20034;-79
2023/12/12 02:52:38;;;;;;;45.10;11.43;;;;;;;4.98;100.00;100603.41;4967343;28;21407;-78
2023/12/12 02:55:04;;;;;;;66.78;11.02;;;;;;;4.98;100.00;100599.94;4979809;28;20070;-80
2023/12/12 02:57:30;;;;;;;47.92;11.25;;;;;;;4.98;100.00;100597.28;4989493;28;20080;-80
2023/12/12 02:59:56;;;;;;;63.58;10.77;;;;;;;5.00;100.00;100611.13;4974447;28;20042;-78
2023/12/12 03:02:22;;;;;;;74.95;11.35;;;;;;;4.96;100.00;100605.50;4986954;28;20034;-80
2023/12/12 03:04:47;;;;;;;47.78;10.75;;;;;;;4.95;100.00;100595.94;4970540;28;20041;-80
2023/12/12 03:07:13;;;;;;;75.55;12.68;;;;;;;4.95;100.00;100598.56;4971517;28;21297;-80
2023/12/12 03:09:39;;;;;;;66.72;11.15;;;;;;;4.95;100.00;100598.56;4959302;28;20141;-80
2023/12/12 03:12:05;;;;;;;;;;;;;;;4.96;100.00;100613.47;4969394;28;20118;-81
2023/12/12 03:14:31;;;;;;;49.33;11.43;;;;;;;4.96;100.00;100615.31;4987917;28;20008;-79
2023/12/12 03:16:57;;;;;;;;;;;;;;;4.95;100.00;100617.16;4968072;28;20488;-77
2023/12/12 03:19:24;;;;;;;56.25;10.48;;;;;;;4.94;100.00;100604.91;4957006;28;19920;-79
2023/12/12 03:21:50;;;;;;;73.75;11.93;;;;;;;4.94;100.00;100612.88;4972702;28;20038;-81
2023/12/12 03:24:16;;;;;;;55.35;11.10;;;;;;;4.93;100.00;100612.06;4985906;28;20042;-80
2023/12/12 03:26:43;;;;;;;116.60;13.23;;;;;;;4.93;100.00;100603.28;4958496;28;20026;-79
2023/12/12 03:29:09;;;;;;;137.68;14.32;;;;;;;4.92;100.00;100604.34;4989202;28;20520;-79
2023/12/12 03:31:35;;;;;;;62.97;12.70;;;;;;;4.92;100.00;100607.00;4990274;28;20046;-79
2023/12/12 03:34:01;;;;;;;76.97;12.88;;;;;;;4.92;100.00;100604.34;4976766;28;20138;-79
2023/12/12 03:36:27;;;;;;;52.00;10.90;;;;;;;4.93;100.00;100608.59;4968982;28;20043;-79
2023/12/12 03:38:52;;;;;;;62.33;10.60;;;;;;;4.93;100.00;100604.09;4972586;28;20034;-78
2023/12/12 03:41:18;;;;;;;64.85;11.27;;;;;;;4.96;100.00;100602.03;4968028;28;20053;-74
2023/12/12 03:43:44;;;;;;;101.07;13.05;;;;;;;4.94;100.00;100602.25;4979829;28;20026;-80
2023/12/12 03:46:12;;;;;;;63.97;12.15;;;;;;;4.93;100.00;100606.75;4984150;28;20030;-79
2023/12/12 03:48:37;;;;;;;47.97;11.63;;;;;;;4.96;100.00;100605.50;4986738;28;20026;-79
2023/12/12 03:51:03;;;;;;;45.22;10.45;;;;;;;4.96;100.00;100602.84;4954432;28;20121;-79
2023/12/12 03:53:29;;;;;;;52.95;9.10;;;;;;;4.97;100.00;100601.00;4984062;28;20038;-81
2023/12/12 03:55:55;;;;;;;55.25;12.00;;;;;;;4.98;100.00;100602.59;4971397;28;20038;-81
2023/12/12 03:58:21;;;;;;;48.20;11.05;;;;;;;4.99;100.00;100605.00;4968563;28;20033;-79
2023/12/12 04:00:46;;;;;;;48.03;10.70;;;;;;;4.99;100.00;100593.59;4991212;28;20054;-79
2023/12/12 04:03:12;;;;;;;41.47;10.45;;;;;;;5.00;100.00;100590.69;4987493;28;20042;-79
2023/12/12 04:05:39;;;;;;;64.10;11.18;;;;;;;5.00;100.00;100601.31;4972239;28;20046;-82
2023/12/12 04:08:04;;;;;;;68.60;13.13;;;;;;;5.00;100.00;100601.31;4969883;28;20121;-78
2023/12/12 04:10:30;;;;;;;50.70;11.73;;;;;;;5.00;100.00;100606.63;4985948;28;20105;-79
2023/12/12 04:12:56;;;;;;;128.15;14.00;;;;;;;5.01;100.00;100602.09;4971327;28;20046;-78
2023/12/12 04:15:22;;;;;;;65.43;11.85;;;;;;;4.99;100.00;100605.00;4966755;28;20038;-79
2023/12/12 04:17:48;;;;;;;66.97;12.43;;;;;;;5.00;100.00;100606.63;4967495;28;20038;-79
2023/12/12 04:20:13;;;;;;;72.07;12.38;;;;;;;5.00;100.00;100614.56;4984338;28;20065;-78
2023/12/12 04:22:39;;;;;;;49.08;11.93;;;;;;;4.99;100.00;100612.97;4988883;28;20045;-82
2023/12/12 04:25:06;;;;;;;34.65;8.93;;;;;;;5.01;100.00;100618.84;4991772;28;20034;-79
2023/12/12 04:27:32;;;;;;;56.20;11.73;;;;;;;5.01;100.00;100604.75;4973951;28;20117;-79
2023/12/12 04:29:57;;;;;;;65.85;11.63;;;;;;;5.01;100.00;100605.56;4994599;28;20118;-80
2023/12/12 04:32:23;;;;;;;43.50;11.52;;;;;;;5.01;100.00;100607.41;4970425;28;20043;-79
2023/12/12 04:34:48;;;;;;;105.57;12.75;;;;;;;5.03;100.00;100613.31;4985306;28;20418;-80
2023/12/12 04:37:14;;;;;;;59.80;12.77;;;;;;;5.01;100.00;100608.22;4940293;28;20526;-79
2023/12/12 04:39:40;;;;;;;116.97;12.50;;;;;;;5.01;100.00;100618.84;4976244;28;20038;-79
2023/12/12 04:42:13;;;;;;;132.50;13.43;;;;;;;5.00;100.00;100617.22;4984324;28;20029;-82
2023/12/12 04:44:41;;;;;;;201.57;14.15;;;;;;;5.02;100.00;100620.47;4972845;28;20130;-81
2023/12/12 04:47:08;;;;;;;86.57;12.20;;;;;;;5.02;100.00;100619.69;4966744;28;20038;-78
2023/12/12 04:49:34;;;;;;;;;;;;;;;5.02;100.00;100619.69;4968051;28;20082;-79
2023/12/12 04:52:00;;;;;;;188.10;13.25;;;;;;;5.00;100.00;100621.72;4967061;28;19922;-81
2023/12/12 04:54:25;;;;;;;128.48;13.10;;;;;;;5.00;100.00;100625.19;4984101;28;20045;-80
2023/12/12 04:56:51;;;;;;;78.78;11.68;;;;;;;5.00;100.00;100627.84;4969701;28;20025;-80
2023/12/12 04:59:17;;;;;;;101.93;12.43;;;;;;;4.98;100.00;100624.63;4988240;28;20058;-79
2023/12/12 05:01:43;;;;;;;52.67;11.90;;;;;;;5.01;100.00;100621.50;4989239;28;20619;-78
2023/12/12 05:04:09;;;;;;;78.40;12.40;;;;;;;4.98;100.00;100616.66;4970885;28;20064;-79
2023/12/12 05:06:35;;;;;;;60.13;11.07;;;;;;;4.99;100.00;100615.63;4971252;28;20026;-78
2023/12/12 05:09:00;;;;;;;45.35;10.10;;;;;;;5.02;100.00;100627.63;4956790;28;20034;-80
2023/12/12 05:11:26;;;;;;;49.00;10.68;;;;;;;5.00;100.00;100622.53;4987790;28;20250;-80
2023/12/12 05:13:51;;;;;;;60.00;10.68;;;;;;;5.02;100.00;100633.75;4984497;28;20034;-79
2023/12/12 05:16:17;;;;;;;53.78;10.43;;;;;;;5.02;100.00;100636.41;4968569;28;20034;-80
2023/12/12 05:18:43;;;;;;;54.10;12.18;;;;;;;5.02;100.00;100636.41;4969868;28;20774;-80
2023/12/12 05:21:08;;;;;;;53.45;10.30;;;;;;;5.03;100.00;100643.31;4966609;28;20298;-80
2023/12/12 05:23:34;;;;;;;50.45;10.48;;;;;;;5.03;100.00;100640.66;4982924;28;20496;-80
2023/12/12 05:26:00;;;;;;;69.63;11.32;;;;;;;5.02;100.00;100641.72;4985251;28;20022;-80
2023/12/12 05:28:26;;;;;;;53.70;10.13;;;;;;;5.07;100.00;100651.59;4973918;28;20041;-79
2023/12/12 05:30:52;;;;;;;;;;;;;;;5.06;100.00;100642.84;4991921;28;20026;-78
2023/12/12 05:33:18;;;;;;;44.85;8.57;;;;;;;5.06;100.00;100645.50;4986562;28;19987;-81
2023/12/12 05:35:44;;;;;;;91.88;9.82;;;;;;;5.07;100.00;100654.25;4986864;28;20034;-79
2023/12/12 05:38:11;;;;;;;66.28;9.20;;;;;;;5.06;100.00;100648.16;4987580;28;20057;-81
2023/12/12 05:40:37;;;;;;;86.47;11.52;;;;;;;5.06;100.00;100660.63;4970460;28;20035;-79
2023/12/12 05:43:02;;;;;;;56.13;10.07;;;;;;;5.06;100.00;100655.31;4989941;28;20041;-80
2023/12/12 05:45:29;;;;;;;125.53;10.77;;;;;;;5.05;100.00;100670.44;4984209;28;20538;-78
2023/12/12 05:47:55;;;;;;;90.72;11.23;;;;;;;5.06;100.00;100669.38;4969553;28;20057;-81
2023/12/12 05:50:20;;;;;;;50.92;8.70;;;;;;;5.05;100.00;100670.44;4986911;28;20034;-76
2023/12/12 05:52:46;;;;;;;110.20;10.55;;;;;;;5.04;100.00;100666.16;4970892;28;20499;-81
2023/12/12 05:55:12;;;;;;;75.50;8.80;;;;;;;5.02;100.00;100657.63;4951265;28;20099;-78
2023/12/12 05:57:38;;;;;;;85.55;9.20;;;;;;;5.01;100.00;100666.63;4984131;28;20042;-80
2023/12/12 06:00:05;;;;;;;63.20;8.40;;;;;;;5.03;100.00;100663.75;4966029;28;20096;-79
2023/12/12 06:02:38;;;;;;;118.65;10.45;;;;;;;5.04;100.00;100665.34;4987703;28;20041;-80
2023/12/12 06:05:07;;;;;;;76.95;9.35;;;;;;;5.04;100.00;100673.31;4968808;28;20088;-79
2023/12/12 06:07:35;;;;;;;108.72;10.38;;;;;;;5.05;100.00;100675.72;4971765;28;20080;-80
2023/12/12 06:10:01;;;;;;;61.10;8.70;;;;;;;5.03;100.00;100669.88;4985607;28;20030;-78
2023/12/12 06:12:26;;;;;;;66.45;9.02;;;;;;;5.05;100.00;100670.44;4984966;28;20933;-79
2023/12/12 06:14:53;;;;;;;82.35;9.45;;;;;;;5.06;100.00;100679.19;4982668;28;20042;-78
2023/12/12 06:17:19;;;;;;;149.88;11.15;;;;;;;5.05;100.00;100678.38;4969882;28;20092;-79
2023/12/12 06:19:45;;;;;;;144.23;10.25;;;;;;;5.06;100.00;100680.00;4988263;28;20030;-79
2023/12/12 06:22:13;;;;;;;65.53;9.18;;;;;;;5.04;100.00;100683.94;4984015;28;20031;-79
2023/12/12 06:24:39;;;;;;;48.45;9.80;;;;;;;5.06;100.00;100679.19;4985782;28;20129;-79
2023/12/12 06:27:05;;;;;;;70.28;9.45;;;;;;;5.06;100.00;100680.00;4969452;28;20128;-79
2023/12/12 06:29:32;;;;;;;60.20;8.52;;;;;;;5.07;100.00;100686.13;4966242;28;20145;-78
2023/12/12 06:31:57;;;;;;;45.92;8.80;;;;;;;5.05;100.00;100678.38;4984916;28;20519;-77
2023/12/12 06:34:23;;;;;;;67.57;9.00;;;;;;;5.04;100.00;100684.75;4967691;28;20067;-81
2023/12/12 06:36:49;;;;;;;47.67;7.68;;;;;;;5.05;100.00;100685.53;4970848;28;20038;-80
2023/12/12 06:39:14;;;;;;;63.83;8.52;;;;;;;5.03;100.00;100680.47;4972027;28;20039;-79
2023/12/12 06:41:40;;;;;;;82.28;9.43;;;;;;;5.03;100.00;100679.69;4983972;28;20034;-79
2023/12/12 06:44:06;;;;;;;198.43;12.45;;;;;;;5.03;100.00;100679.69;4970794;28;20042;-78
2023/12/12 06:46:32;;;;;;;177.63;11.38;;;;;;;5.02;100.00;100683.38;4988057;28;20044;-79
2023/12/12 06:48:57;;;;;;;80.57;8.95;;;;;;;5.01;100.00;100682.53;4988845;28;20034;-79
2023/12/12 06:51:23;;;;;;;74.57;9.40;;;;;;;5.02;100.00;100683.38;4970515;28;20046;-79
2023/12/12 06:53:54;;;;;;;65.15;8.75;;;;;;;5.03;100.00;100679.69;4981612;28;20088;-79
2023/12/12 06:56:20;;;;;;;;;;;;;;;5.03;100.00;100677.81;4967050;28;20051;-80
2023/12/12 06:58:46;;;;;;;43.85;7.63;;;;;;;5.03;100.00;100675.19;4972741;28;19917;-81
2023/12/12 07:01:13;;;;;;;34.58;6.38;;;;;;;5.03;100.00;100669.88;4968713;28;20045;-82
2023/12/12 07:03:39;;;;;;;65.78;8.40;;;;;;;5.02;100.00;100668.25;4958353;28;20077;-80
2023/12/12 07:06:06;;;;;;;58.20;9.30;;;;;;;4.99;100.00;100676.66;4955864;28;20064;-80
2023/12/12 07:08:32;;;;;;;91.57;10.20;;;;;;;5.00;100.00;100677.47;4984695;28;20061;-80
2023/12/12 07:10:58;;;;;;;45.22;7.97;;;;;;;5.01;100.00;100676.44;4970140;28;20035;-79
2023/12/12 07:13:23;;;;;;;42.70;8.43;;;;;;;5.00;100.00;100674.81;4968031;28;20049;-79
2023/12/12 07:15:49;;;;;;;53.95;9.32;;;;;;;4.99;100.00;100681.16;4969300;28;20101;-77
2023/12/12 07:18:16;;;;;;;48.50;8.75;;;;;;;4.99;100.00;100668.72;4985787;28;20037;-78
2023/12/12 07:20:41;;;;;;;42.92;8.63;;;;;;;5.00;100.00;100674.81;4986702;28;20492;-81
2023/12/12 07:23:07;;;;;;;39.60;7.88;;;;;;;4.99;100.00;100673.22;4970158;28;20543;-75
2023/12/12 07:25:35;;;;;;;46.97;8.73;;;;;;;4.96;100.00;100679.00;4985280;28;20530;-78
2023/12/12 07:28:00;;;;;;;44.03;8.73;;;;;;;4.95;100.00;100672.88;4961630;23;20047;-70
2023/12/12 07:30:29;;;;;;;45.28;9.40;;;;;;;4.97;100.00;100681.41;4976787;28;20045;-70
2023/12/12 07:32:56;;;;;;;49.95;9.77;;;;;;;5.00;100.00;100682.78;4949702;28;20039;-68
2023/12/12 07:35:23;;;;;;;50.53;9.07;;;;;;;5.02;100.00;100689.50;4963033;28;20035;-70
2023/12/12 07:37:49;;;;;;;35.67;8.43;;;;;;;5.03;100.00;100692.94;4963369;28;20470;-69
2023/12/12 07:40:15;;;;;;;51.22;9.00;;;;;;;5.01;100.00;100695.00;4964124;28;20544;-71
2023/12/12 07:42:41;;;;;;;51.30;9.73;;;;;;;5.00;100.00;100696.84;4964544;28;20038;-72
2023/12/12 07:45:07;;;;;;;52.22;9.20;;;;;;;5.00;100.00;100701.34;4963922;28;20031;-72
2023/12/12 07:47:34;;;;;;;38.35;9.38;;;;;;;4.99;100.00;100700.56;4947623;28;20041;-70
2023/12/12 07:49:59;;;;;;;;;;;;;;;5.00;100.00;100704.81;4966273;28;20035;-69
2023/12/12 07:52:26;;;;;;;55.28;11.18;;;;;;;4.99;100.00;100700.56;4960266;28;19922;-69
2023/12/12 07:54:52;;;;;;;46.85;11.18;;;;;;;5.00;100.00;100702.16;4964461;28;20088;-70
2023/12/12 07:57:17;;;;;;;42.85;9.80;;;;;;;5.01;100.00;100700.31;4945850;28;20161;-70
2023/12/12 07:59:44;;;;;;;48.53;11.45;;;;;;;5.02;100.00;100696.66;4965926;28;20035;-71
2023/12/12 08:02:10;;;;;;;42.45;11.57;;;;;;;5.03;100.00;100695.59;4951227;28;20030;-70
2023/12/12 08:04:36;;;;;;;48.60;10.23;;;;;;;5.04;100.00;100705.16;4946289;28;20069;-71
2023/12/12 08:07:03;;;;;;;41.83;9.98;;;;;;;5.04;100.00;100705.16;4960154;28;20110;-71
2023/12/12 08:09:29;;;;;;;30.77;8.23;;;;;;;5.04;100.00;100699.88;4963131;28;20042;-70
2023/12/12 08:11:55;;;;;;;39.90;9.43;;;;;;;5.04;100.00;100700.66;4964419;28;20035;-70
2023/12/12 08:14:21;;;;;;;35.65;9.02;;;;;;;5.06;100.00;100701.22;4959646;28;20053;-70
2023/12/12 08:16:47;;;;;;;26.50;7.25;;;;;;;5.08;100.00;100708.97;4947753;28;20415;-70
2023/12/12 08:19:13;;;;;;;37.58;8.93;;;;;;;5.08;100.00;100714.25;4962765;28;20327;-71
2023/12/12 08:21:40;;;;;;;42.78;11.00;;;;;;;5.10;100.00;100707.69;4962026;28;20059;-70
2023/12/12 08:24:06;;;;;;;38.88;9.27;;;;;;;5.11;100.00;100714.63;4945204;28;20043;-71
2023/12/12 08:26:43;;;;;;;41.92;10.10;;;;;;;5.10;100.00;100715.66;4945195;28;20030;-70
2023/12/12 08:29:09;;;;;;;40.03;10.20;;;;;;;5.08;100.00;100715.09;4963064;28;20050;-70
2023/12/12 08:31:37;;;;;;;40.85;9.30;;;;;;;5.09;100.00;100711.41;4959720;28;20046;-70
2023/12/12 08:34:04;;;;;;;35.88;10.18;;;;;;;5.11;100.00;100703.19;4965275;28;20029;-70
2023/12/12 08:36:29;;;;;;;39.72;9.88;;;;;;;5.15;100.00;100714.97;4961355;28;20035;-70
2023/12/12 08:38:58;;;;;;;34.67;8.77;;;;;;;5.15;100.00;100715.78;4962831;28;20113;-71
2023/12/12 08:41:27;;;;;;;36.92;9.57;;;;;;;5.16;100.00;100717.38;4959186;28;20094;-70
2023/12/12 08:44:00;;;;;;;36.72;9.60;;;;;;;5.18;100.00;100714.50;4943470;28;20128;-69
2023/12/12 08:46:26;;;;;;;;;;;;;;;5.18;100.00;100715.28;4960945;28;20046;-69
2023/12/12 08:48:54;;;;;;;33.72;9.18;;;;;;;5.20;100.00;100715.84;4960558;28;19914;-69
2023/12/12 08:51:19;;;;;;;29.23;8.35;;;;;;;5.21;100.00;100714.00;4965177;28;20045;-71
2023/12/12 08:53:45;;;;;;;30.42;8.00;;;;;;;5.22;100.00;100714.84;4961731;28;20027;-69
2023/12/12 08:56:14;;;;;;;27.23;8.68;;;;;;;5.23;100.00;100717.25;4948005;28;20753;-70
2023/12/12 08:58:40;;;;;;;27.83;8.15;;;;;;;5.20;100.00;100713.19;4961183;28;20084;-70
2023/12/12 09:01:06;;;;;;;31.15;9.35;;;;;;;5.22;100.00;100702.38;4962079;28;20035;-70
2023/12/12 09:03:31;;;;;;;31.65;9.57;;;;;;;5.24;100.00;100712.75;4945854;28;20042;-70
2023/12/12 09:05:57;;;;;;;29.60;8.10;;;;;;;5.25;100.00;100714.34;4967704;28;20473;-69
2023/12/12 09:08:23;;;;;;;29.10;9.60;;;;;;;5.26;100.00;100715.97;4963612;28;20833;-69
2023/12/12 09:10:48;;;;;;;38.85;9.48;;;;;;;5.27;100.00;100712.28;4947057;28;20081;-70
2023/12/12 09:13:14;;;;;;;30.08;9.20;;;;;;;5.28;100.00;100709.38;4959751;28;20046;-69
2023/12/12 09:15:39;;;;;;;36.55;9.25;;;;;;;5.29;100.00;100707.56;4943753;28;20039;-69
2023/12/12 09:18:05;;;;;;;37.72;9.95;;;;;;;5.29;100.00;100707.56;4961490;28;20041;-69
2023/12/12 09:20:30;;;;;;;38.28;9.70;;;;;;;5.29;100.00;100710.22;4945963;28;20062;-68
2023/12/12 09:22:56;;;;;;;46.58;10.50;;;;;;;5.30;100.00;100711.81;4963243;28;20042;-70
2023/12/12 09:25:21;;;;;;;41.65;9.98;;;;;;;5.33;100.00;100708.69;4959455;28;20586;-70
2023/12/12 09:27:48;;;;;;;40.92;10.57;;;;;;;5.35;100.00;100706.59;4963668;28;20110;-71
2023/12/12 09:30:14;;;;;;;45.85;10.43;;;;;;;5.35;100.00;100706.59;4959835;28;20078;-70
2023/12/12 09:32:40;;;;;;;40.08;9.18;;;;;;;5.37;100.00;100707.19;4956846;28;20401;-72
2023/12/12 09:35:06;;;;;;;44.28;9.98;;;;;;;5.38;100.00;100708.78;4945263;28;20123;-69
2023/12/12 09:37:31;;;;;;;51.30;10.02;;;;;;;5.39;100.00;100705.09;4956943;28;20504;-70
2023/12/12 09:39:57;;;;;;;47.38;10.82;;;;;;;5.40;100.00;100712.81;4963577;28;20038;-70
2023/12/12 09:42:24;;;;;;;38.65;9.35;;;;;;;5.41;100.00;100703.78;4959835;28;20066;-70
2023/12/12 09:44:58;;;;;;;48.58;10.82;;;;;;;5.45;100.00;100704.13;4961837;28;20054;-69
2023/12/12 09:47:27;;;;;;;35.22;8.85;;;;;;;5.49;100.00;100697.31;4961679;28;20038;-71
2023/12/12 09:49:55;;;;;;;35.05;9.00;;;;;;;5.53;100.00;100706.41;4957720;28;20407;-71
2023/12/12 09:52:33;;;;;;;38.55;9.30;;;;;;;5.52;100.00;100704.81;4959685;28;20031;-70
2023/12/12 09:54:59;;;;;;;34.78;9.02;;;;;;;5.52;100.00;100710.13;4960018;28;20050;-70
2023/12/12 09:57:27;;;;;;;33.28;9.05;;;;;;;5.53;100.00;100703.75;4959625;28;20629;-69
2023/12/12 09:59:53;;;;;;;33.75;8.07;;;;;;;5.56;100.00;100700.66;4965203;28;20147;-69
2023/12/12 10:02:26;;;;;;;25.00;8.30;;;;;;;5.59;100.00;100704.66;4959185;28;20629;-71
2023/12/12 10:04:53;;;;;;;22.95;6.65;;;;;;;5.61;100.00;100706.03;4957690;28;20647;-70
2023/12/12 10:07:23;;;;;;;25.80;7.55;;;;;;;5.63;100.00;100701.31;4963326;28;20153;-71
2023/12/12 10:09:49;;;;;;;21.48;7.30;;;;;;;5.63;100.00;100697.84;4967418;28;20031;-71
2023/12/12 10:12:15;;;;;;;22.63;7.38;;;;;;;5.63;100.00;100696.00;4961958;28;20042;-71
2023/12/12 10:14:44;;;;;;;;;;;;;;;5.67;100.00;100691.81;4960701;28;20030;-71
2023/12/12 10:17:11;;;;;;;23.15;6.78;;;;;;;5.68;100.00;100693.41;4962918;28;19922;-71
2023/12/12 10:19:38;;;;;;;23.85;7.50;;;;;;;5.68;100.00;100693.41;4947122;28;20034;-70
2023/12/12 10:22:08;;;;;;;22.05;7.05;;;;;;;5.67;100.00;100683.81;4958714;28;20627;-70
2023/12/12 10:24:35;;;;;;;24.58;8.05;;;;;;;5.66;100.00;100681.41;4957842;28;20121;-70
2023/12/12 10:27:03;;;;;;;21.10;8.05;;;;;;;5.62;100.00;100681.09;4963144;28;20101;-70
2023/12/12 10:29:31;;;;;;;19.20;6.50;;;;;;;5.60;100.00;100679.72;4961428;28;20042;-69
2023/12/12 10:32:02;;;;;;;19.45;6.53;;;;;;;5.64;100.00;100673.69;4959458;28;20078;-70
2023/12/12 10:34:28;;;;;;;18.05;6.50;;;;;;;5.67;100.00;100678.50;4957152;28;20035;-68
2023/12/12 10:36:54;;;;;;;19.15;6.30;;;;;;;5.72;100.00;100667.97;4961416;28;20031;-69
2023/12/12 10:39:19;;;;;;;22.05;7.22;;;;;;;5.67;100.00;100665.22;4961899;28;20038;-70
2023/12/12 10:41:52;;;;;;;13.50;5.70;;;;;;;5.63;100.00;100668.63;4962166;28;20057;-70
2023/12/12 10:44:29;;;;;;;14.93;6.20;;;;;;;5.68;100.00;100671.34;4957623;28;20058;-70
2023/12/12 10:46:55;;;;;;;17.17;5.70;;;;;;;5.67;100.00;100670.53;4956209;28;20034;-70
2023/12/12 10:49:24;;;;;;;14.80;5.93;;;;;;;5.64;100.00;100663.06;4945802;28;20042;-70
2023/12/12 10:51:51;;;;;;;13.00;5.60;;;;;;;5.67;100.00;100667.88;4962109;28;20520;-70
2023/12/12 10:54:19;;;;;;;13.82;5.25;;;;;;;5.65;100.00;100664.66;4958211;28;20050;-70
2023/12/12 10:56:46;;;;;;;18.52;6.55;;;;;;;5.66;100.00;100660.16;4963118;28;20035;-69
2023/12/12 10:59:16;;;;;;;19.75;7.20;;;;;;;5.65;100.00;100662.00;4960993;28;20023;-69
2023/12/12 11:01:47;;;;;;;18.55;6.40;;;;;;;5.65;100.00;100656.69;4965565;28;20031;-70
2023/12/12 11:04:14;;;;;;;20.90;7.15;;;;;;;5.64;100.00;100655.09;4948666;28;20031;-69
2023/12/12 11:06:41;;;;;;;20.17;7.80;;;;;;;5.60;100.00;100651.28;4965616;28;20047;-70
2023/12/12 11:09:08;;;;;;;18.33;6.45;;;;;;;5.60;100.00;100647.81;4940581;28;20050;-69
2023/12/12 11:11:36;;;;;;;23.55;7.50;;;;;;;5.59;100.00;100641.72;4962455;28;20035;-71
2023/12/12 11:14:02;;;;;;;19.55;7.32;;;;;;;5.57;100.00;100638.50;4964404;28;20035;-70